sensor_id;sensor_type;location;lat;lon;timestamp;pressure;altitude;pressure_sealevel;temperature;humidity
12963;BME280;6546;49.882;8.666;2023-07-31T00:01:46;99873.97;;;19.43;61.71
12963;BME280;6546;49.882;8.666;2023-07-31T00:04:12;99874.34;;;19.46;59.40
12963;BME280;6546;49.882;8.666;2023-07-31T00:06:39;99878.44;;;19.42;58.90
12963;BME280;6546;49.882;8.666;2023-07-31T00:09:05;99870.56;;;19.42;58.44
12963;BME280;6546;49.882;8.666;2023-07-31T00:11:33;99869.53;;;19.43;57.80
12963;BME280;6546;49.882;8.666;2023-07-31T00:14:01;99873.19;;;19.42;59.73
12963;BME280;6546;49.882;8.666;2023-07-31T00:16:27;99870.19;;;19.38;57.46
12963;BME280;6546;49.882;8.666;2023-07-31T00:18:54;99870.78;;;19.41;57.00
12963;BME280;6546;49.882;8.666;2023-07-31T00:21:20;99865.59;;;19.34;58.14
12963;BME280;6546;49.882;8.666;2023-07-31T00:23:47;99867.66;;;19.32;59.24
12963;BME280;6546;49.882;8.666;2023-07-31T00:26:13;99865.47;;;19.29;59.39
12963;BME280;6546;49.882;8.666;2023-07-31T00:28:41;99868.00;;;19.35;59.03
12963;BME280;6546;49.882;8.666;2023-07-31T00:31:08;99867.78;;;19.37;57.35
12963;BME280;6546;49.882;8.666;2023-07-31T00:33:35;99866.16;;;19.36;59.00
12963;BME280;6546;49.882;8.666;2023-07-31T00:36:02;99863.47;;;19.43;57.11
12963;BME280;6546;49.882;8.666;2023-07-31T00:38:28;99865.66;;;19.46;56.43
12963;BME280;6546;49.882;8.666;2023-07-31T00:40:55;99857.84;;;19.39;57.69
12963;BME280;6546;49.882;8.666;2023-07-31T00:43:21;99862.53;;;19.37;57.23
12963;BME280;6546;49.882;8.666;2023-07-31T00:45:49;99855.09;;;19.34;57.18
12963;BME280;6546;49.882;8.666;2023-07-31T00:48:16;99848.16;;;19.39;57.33
12963;BME280;6546;49.882;8.666;2023-07-31T00:50:43;99857.84;;;19.39;56.76
12963;BME280;6546;49.882;8.666;2023-07-31T00:53:09;99847.34;;;19.39;56.68
12963;BME280;6546;49.882;8.666;2023-07-31T00:55:36;99845.34;;;19.41;56.65
12963;BME280;6546;49.882;8.666;2023-07-31T00:58:02;99839.63;;;19.44;56.68
12963;BME280;6546;49.882;8.666;2023-07-31T01:00:29;99846.47;;;19.45;56.34
12963;BME280;6546;49.882;8.666;2023-07-31T01:02:57;99845.00;;;19.49;55.54
12963;BME280;6546;49.882;8.666;2023-07-31T01:05:29;99837.56;;;19.46;55.86
12963;BME280;6546;49.882;8.666;2023-07-31T01:08:02;99840.44;;;19.45;56.21
12963;BME280;6546;49.882;8.666;2023-07-31T01:10:35;99840.19;;;19.46;55.24
12963;BME280;6546;49.882;8.666;2023-07-31T01:13:03;99839.75;;;19.49;55.12
12963;BME280;6546;49.882;8.666;2023-07-31T01:15:30;99837.56;;;19.46;56.01
12963;BME280;6546;49.882;8.666;2023-07-31T01:17:58;99834.94;;;19.46;55.46
12963;BME280;6546;49.882;8.666;2023-07-31T01:20:26;99830.28;;;19.48;54.82
12963;BME280;6546;49.882;8.666;2023-07-31T01:23:20;99832.31;;;19.46;54.85
12963;BME280;6546;49.882;8.666;2023-07-31T01:26:00;99828.41;;;19.37;54.99
12963;BME280;6546;49.882;8.666;2023-07-31T01:28:36;99826.78;;;19.36;55.17
12963;BME280;6546;49.882;8.666;2023-07-31T01:31:07;99828.19;;;19.38;55.70
12963;BME280;6546;49.882;8.666;2023-07-31T01:33:34;99822.72;;;19.40;54.73
12963;BME280;6546;49.882;8.666;2023-07-31T01:36:02;99816.06;;;19.37;55.27
12963;BME280;6546;49.882;8.666;2023-07-31T01:38:29;99822.84;;;19.45;54.71
12963;BME280;6546;49.882;8.666;2023-07-31T01:40:57;99820.66;;;19.42;54.97
12963;BME280;6546;49.882;8.666;2023-07-31T01:43:23;99823.28;;;19.42;55.67
12963;BME280;6546;49.882;8.666;2023-07-31T01:45:50;99823.44;;;19.47;54.55
12963;BME280;6546;49.882;8.666;2023-07-31T01:48:17;99814.41;;;19.43;55.67
12963;BME280;6546;49.882;8.666;2023-07-31T01:50:43;99824.34;;;19.41;55.22
12963;BME280;6546;49.882;8.666;2023-07-31T01:53:10;99804.75;;;19.37;54.76
12963;BME280;6546;49.882;8.666;2023-07-31T01:55:37;99806.13;;;19.39;55.36
12963;BME280;6546;49.882;8.666;2023-07-31T01:58:05;99802.13;;;19.37;55.26
12963;BME280;6546;49.882;8.666;2023-07-31T02:00:32;99798.34;;;19.33;56.56
12963;BME280;6546;49.882;8.666;2023-07-31T02:02:59;99796.88;;;19.37;55.77
12963;BME280;6546;49.882;8.666;2023-07-31T02:05:25;99792.03;;;19.41;55.47
12963;BME280;6546;49.882;8.666;2023-07-31T02:07:52;99791.53;;;19.32;56.26
12963;BME280;6546;49.882;8.666;2023-07-31T02:10:19;99792.09;;;19.34;56.10
12963;BME280;6546;49.882;8.666;2023-07-31T02:12:45;99785.97;;;19.40;55.11
12963;BME280;6546;49.882;8.666;2023-07-31T02:15:13;99786.84;;;19.34;55.66
12963;BME280;6546;49.882;8.666;2023-07-31T02:17:39;99773.81;;;19.27;56.25
12963;BME280;6546;49.882;8.666;2023-07-31T02:20:07;99771.53;;;19.31;55.87
12963;BME280;6546;49.882;8.666;2023-07-31T02:22:34;99776.78;;;19.31;55.99
12963;BME280;6546;49.882;8.666;2023-07-31T02:25:00;99750.63;;;19.24;55.99
12963;BME280;6546;49.882;8.666;2023-07-31T02:27:27;99778.03;;;19.28;56.20
12963;BME280;6546;49.882;8.666;2023-07-31T02:29:54;99769.13;;;19.29;55.88
12963;BME280;6546;49.882;8.666;2023-07-31T02:32:22;99762.97;;;19.24;55.51
12963;BME280;6546;49.882;8.666;2023-07-31T02:34:48;99774.47;;;19.23;56.48
12963;BME280;6546;49.882;8.666;2023-07-31T02:37:15;99770.84;;;19.24;56.78
12963;BME280;6546;49.882;8.666;2023-07-31T02:39:41;99769.81;;;19.25;56.44
12963;BME280;6546;49.882;8.666;2023-07-31T02:42:08;99778.72;;;19.24;56.45
12963;BME280;6546;49.882;8.666;2023-07-31T02:44:35;99779.97;;;19.21;56.10
12963;BME280;6546;49.882;8.666;2023-07-31T02:47:04;99770.72;;;19.19;56.73
12963;BME280;6546;49.882;8.666;2023-07-31T02:49:33;99766.03;;;19.21;56.25
12963;BME280;6546;49.882;8.666;2023-07-31T02:51:59;99772.19;;;19.15;56.83
12963;BME280;6546;49.882;8.666;2023-07-31T02:54:26;99780.06;;;19.15;57.49
12963;BME280;6546;49.882;8.666;2023-07-31T02:56:52;99773.19;;;19.14;56.81
12963;BME280;6546;49.882;8.666;2023-07-31T02:59:20;99761.22;;;19.06;57.19
12963;BME280;6546;49.882;8.666;2023-07-31T03:01:46;99767.03;;;19.08;57.68
12963;BME280;6546;49.882;8.666;2023-07-31T03:04:13;99777.97;;;19.05;58.19
12963;BME280;6546;49.882;8.666;2023-07-31T03:06:41;99777.84;;;19.00;58.88
12963;BME280;6546;49.882;8.666;2023-07-31T03:09:07;99787.31;;;19.01;58.39
12963;BME280;6546;49.882;8.666;2023-07-31T03:11:34;99786.88;;;19.04;58.41
12963;BME280;6546;49.882;8.666;2023-07-31T03:14:00;99785.72;;;19.00;58.77
12963;BME280;6546;49.882;8.666;2023-07-31T03:16:27;99781.81;;;18.91;59.71
12963;BME280;6546;49.882;8.666;2023-07-31T03:18:54;99787.66;;;18.93;58.69
12963;BME280;6546;49.882;8.666;2023-07-31T03:21:20;99787.84;;;18.92;58.77
12963;BME280;6546;49.882;8.666;2023-07-31T03:23:48;99785.59;;;18.95;58.46
12963;BME280;6546;49.882;8.666;2023-07-31T03:26:15;99781.81;;;18.91;58.81
12963;BME280;6546;49.882;8.666;2023-07-31T03:28:41;99787.41;;;18.95;58.29
12963;BME280;6546;49.882;8.666;2023-07-31T03:31:08;99787.06;;;18.91;58.80
12963;BME280;6546;49.882;8.666;2023-07-31T03:33:34;99778.72;;;18.94;59.34
12963;BME280;6546;49.882;8.666;2023-07-31T03:36:01;99781.81;;;18.91;59.34
12963;BME280;6546;49.882;8.666;2023-07-31T03:38:28;99775.91;;;18.96;57.84
12963;BME280;6546;49.882;8.666;2023-07-31T03:40:56;99774.16;;;18.90;59.04
12963;BME280;6546;49.882;8.666;2023-07-31T03:43:24;99763.09;;;18.87;59.30
12963;BME280;6546;49.882;8.666;2023-07-31T03:45:51;99768.91;;;18.90;59.03
12963;BME280;6546;49.882;8.666;2023-07-31T03:48:17;99776.78;;;18.90;59.76
12963;BME280;6546;49.882;8.666;2023-07-31T03:50:44;99777.91;;;18.82;60.92
12963;BME280;6546;49.882;8.666;2023-07-31T03:53:10;99783.88;;;18.71;61.44
12963;BME280;6546;49.882;8.666;2023-07-31T03:55:37;99782.06;;;18.71;62.72
12963;BME280;6546;49.882;8.666;2023-07-31T03:58:05;99780.13;;;18.67;63.83
12963;BME280;6546;49.882;8.666;2023-07-31T04:00:31;99781.34;;;18.64;63.60
12963;BME280;6546;49.882;8.666;2023-07-31T04:02:58;99777.34;;;18.62;63.25
12963;BME280;6546;49.882;8.666;2023-07-31T04:05:25;99778.28;;;18.49;65.02
12963;BME280;6546;49.882;8.666;2023-07-31T04:07:52;99770.25;;;18.51;63.96
12963;BME280;6546;49.882;8.666;2023-07-31T04:10:18;99776.91;;;18.47;64.90
12963;BME280;6546;49.882;8.666;2023-07-31T04:12:45;99781.66;;;18.38;66.06
12963;BME280;6546;49.882;8.666;2023-07-31T04:15:12;99777.78;;;18.41;66.26
12963;BME280;6546;49.882;8.666;2023-07-31T04:17:39;99774.28;;;18.47;65.02
12963;BME280;6546;49.882;8.666;2023-07-31T04:20:06;99767.78;;;18.49;63.76
12963;BME280;6546;49.882;8.666;2023-07-31T04:22:33;99772.69;;;18.46;64.53
12963;BME280;6546;49.882;8.666;2023-07-31T04:25:00;99778.72;;;18.46;63.90
12963;BME280;6546;49.882;8.666;2023-07-31T04:27:26;99766.41;;;18.47;63.65
12963;BME280;6546;49.882;8.666;2023-07-31T04:29:53;99762.56;;;18.49;62.39
12963;BME280;6546;49.882;8.666;2023-07-31T04:32:21;99761.56;;;18.50;63.09
12963;BME280;6546;49.882;8.666;2023-07-31T04:34:47;99762.56;;;18.49;62.60
12963;BME280;6546;49.882;8.666;2023-07-31T04:37:14;99762.94;;;18.53;62.15
12963;BME280;6546;49.882;8.666;2023-07-31T04:39:40;99763.31;;;18.56;61.34
12963;BME280;6546;49.882;8.666;2023-07-31T04:42:07;99754.91;;;18.48;61.97
12963;BME280;6546;49.882;8.666;2023-07-31T04:44:33;99768.81;;;18.48;61.29
12963;BME280;6546;49.882;8.666;2023-07-31T04:47:00;99764.19;;;18.50;61.37
12963;BME280;6546;49.882;8.666;2023-07-31T04:49:29;99752.06;;;18.49;60.76
12963;BME280;6546;49.882;8.666;2023-07-31T04:51:55;99752.44;;;18.53;61.45
12963;BME280;6546;49.882;8.666;2023-07-31T04:54:22;99751.19;;;18.55;61.63
12963;BME280;6546;49.882;8.666;2023-07-31T04:56:48;99756.59;;;18.60;61.39
12963;BME280;6546;49.882;8.666;2023-07-31T04:59:15;99751.13;;;18.62;60.31
12963;BME280;6546;49.882;8.666;2023-07-31T05:01:41;99752.94;;;18.61;61.17
12963;BME280;6546;49.882;8.666;2023-07-31T05:04:12;99747.94;;;18.60;60.70
12963;BME280;6546;49.882;8.666;2023-07-31T05:06:40;99747.69;;;18.61;60.52
12963;BME280;6546;49.882;8.666;2023-07-31T05:09:06;99749.00;;;18.70;59.98
12963;BME280;6546;49.882;8.666;2023-07-31T05:11:34;99743.75;;;18.70;60.49
12963;BME280;6546;49.882;8.666;2023-07-31T05:14:01;99744.91;;;18.74;58.84
12963;BME280;6546;49.882;8.666;2023-07-31T05:16:27;99738.53;;;18.70;59.71
12963;BME280;6546;49.882;8.666;2023-07-31T05:18:54;99741.25;;;18.75;59.73
12963;BME280;6546;49.882;8.666;2023-07-31T05:21:21;99738.19;;;18.78;59.07
12963;BME280;6546;49.882;8.666;2023-07-31T05:23:48;99740.47;;;18.75;60.01
12963;BME280;6546;49.882;8.666;2023-07-31T05:26:15;99737.19;;;18.79;58.92
12963;BME280;6546;49.882;8.666;2023-07-31T05:28:42;99727.56;;;18.73;58.62
12963;BME280;6546;49.882;8.666;2023-07-31T05:31:08;99744.91;;;18.74;59.84
12963;BME280;6546;49.882;8.666;2023-07-31T05:33:35;99739.19;;;18.77;58.74
12963;BME280;6546;49.882;8.666;2023-07-31T05:36:01;99735.66;;;18.72;59.73
12963;BME280;6546;49.882;8.666;2023-07-31T05:38:28;99748.84;;;18.83;59.04
12963;BME280;6546;49.882;8.666;2023-07-31T05:40:56;99747.34;;;18.87;59.48
12963;BME280;6546;49.882;8.666;2023-07-31T05:43:23;99745.88;;;18.92;58.19
12963;BME280;6546;49.882;8.666;2023-07-31T05:45:50;99746.88;;;18.91;59.26
12963;BME280;6546;49.882;8.666;2023-07-31T05:48:17;99738.72;;;18.99;58.18
12963;BME280;6546;49.882;8.666;2023-07-31T05:50:44;99738.13;;;18.97;58.97
12963;BME280;6546;49.882;8.666;2023-07-31T05:53:10;99727.63;;;18.97;58.51
12963;BME280;6546;49.882;8.666;2023-07-31T05:55:37;99736.91;;;18.99;58.53
12963;BME280;6546;49.882;8.666;2023-07-31T05:58:05;99721.25;;;18.93;58.77
12963;BME280;6546;49.882;8.666;2023-07-31T06:00:31;99742.16;;;18.99;58.83
12963;BME280;6546;49.882;8.666;2023-07-31T06:02:58;99738.03;;;19.03;58.96
12963;BME280;6546;49.882;8.666;2023-07-31T06:05:24;99738.81;;;19.04;58.52
12963;BME280;6546;49.882;8.666;2023-07-31T06:07:51;99733.00;;;19.02;58.38
12963;BME280;6546;49.882;8.666;2023-07-31T06:10:18;99731.09;;;19.09;58.27
12963;BME280;6546;49.882;8.666;2023-07-31T06:12:44;99728.38;;;19.15;58.40
12963;BME280;6546;49.882;8.666;2023-07-31T06:15:12;99724.91;;;19.45;58.70
12963;BME280;6546;49.882;8.666;2023-07-31T06:17:39;99722.34;;;19.96;56.28
12963;BME280;6546;49.882;8.666;2023-07-31T06:20:07;99725.06;;;20.01;55.21
12963;BME280;6546;49.882;8.666;2023-07-31T06:22:33;99718.00;;;20.02;55.88
12963;BME280;6546;49.882;8.666;2023-07-31T06:25:00;99714.75;;;20.34;54.44
12963;BME280;6546;49.882;8.666;2023-07-31T06:27:26;99716.28;;;20.47;55.07
12963;BME280;6546;49.882;8.666;2023-07-31T06:29:53;99706.31;;;20.49;54.81
12963;BME280;6546;49.882;8.666;2023-07-31T06:32:21;99708.41;;;20.47;53.39
12963;BME280;6546;49.882;8.666;2023-07-31T06:34:47;99715.00;;;20.61;53.82
12963;BME280;6546;49.882;8.666;2023-07-31T06:37:14;99710.69;;;20.72;53.35
12963;BME280;6546;49.882;8.666;2023-07-31T06:39:41;99727.75;;;20.69;53.63
12963;BME280;6546;49.882;8.666;2023-07-31T06:42:07;99727.34;;;20.61;54.26
12963;BME280;6546;49.882;8.666;2023-07-31T06:44:34;99719.34;;;20.56;53.63
12963;BME280;6546;49.882;8.666;2023-07-31T06:47:00;99717.22;;;20.69;54.49
12963;BME280;6546;49.882;8.666;2023-07-31T06:49:28;99721.13;;;21.12;53.29
12963;BME280;6546;49.882;8.666;2023-07-31T06:51:55;99719.06;;;21.47;50.51
12963;BME280;6546;49.882;8.666;2023-07-31T06:54:21;99722.34;;;22.63;48.74
12963;BME280;6546;49.882;8.666;2023-07-31T06:56:48;99720.56;;;22.41;47.58
12963;BME280;6546;49.882;8.666;2023-07-31T06:59:15;99729.72;;;21.90;49.32
12963;BME280;6546;49.882;8.666;2023-07-31T07:01:41;99715.06;;;21.61;50.03
12963;BME280;6546;49.882;8.666;2023-07-31T07:04:08;99714.81;;;21.29;51.62
12963;BME280;6546;49.882;8.666;2023-07-31T07:06:36;99719.69;;;21.21;52.10
12963;BME280;6546;49.882;8.666;2023-07-31T07:09:02;99722.53;;;21.03;52.95
12963;BME280;6546;49.882;8.666;2023-07-31T07:11:29;99712.31;;;20.89;53.81
12963;BME280;6546;49.882;8.666;2023-07-31T07:13:56;99713.31;;;21.50;52.83
12963;BME280;6546;49.882;8.666;2023-07-31T07:16:22;99702.69;;;21.83;49.79
12963;BME280;6546;49.882;8.666;2023-07-31T07:18:49;99707.88;;;22.17;50.65
12963;BME280;6546;49.882;8.666;2023-07-31T07:21:15;99703.28;;;22.07;49.44
12963;BME280;6546;49.882;8.666;2023-07-31T07:23:44;99704.72;;;22.20;49.54
12963;BME280;6546;49.882;8.666;2023-07-31T07:26:11;99697.34;;;22.43;48.94
12963;BME280;6546;49.882;8.666;2023-07-31T07:28:37;99699.78;;;22.02;50.40
12963;BME280;6546;49.882;8.666;2023-07-31T07:31:04;99696.13;;;21.86;51.98
12963;BME280;6546;49.882;8.666;2023-07-31T07:33:30;99698.59;;;21.54;51.01
12963;BME280;6546;49.882;8.666;2023-07-31T07:36:00;99703.03;;;21.32;52.98
12963;BME280;6546;49.882;8.666;2023-07-31T07:38:27;99701.81;;;21.23;52.31
12963;BME280;6546;49.882;8.666;2023-07-31T07:40:55;99690.69;;;21.04;54.24
12963;BME280;6546;49.882;8.666;2023-07-31T07:43:21;99686.50;;;21.03;53.64
12963;BME280;6546;49.882;8.666;2023-07-31T07:45:48;99687.13;;;20.93;54.39
12963;BME280;6546;49.882;8.666;2023-07-31T07:48:14;99697.66;;;20.93;54.70
12963;BME280;6546;49.882;8.666;2023-07-31T07:50:42;99682.97;;;20.98;55.08
12963;BME280;6546;49.882;8.666;2023-07-31T07:53:09;99682.97;;;20.98;54.62
12963;BME280;6546;49.882;8.666;2023-07-31T07:55:35;99684.56;;;20.99;54.98
12963;BME280;6546;49.882;8.666;2023-07-31T07:58:03;99688.31;;;20.86;55.30
12963;BME280;6546;49.882;8.666;2023-07-31T08:00:30;99678.97;;;20.78;54.61
12963;BME280;6546;49.882;8.666;2023-07-31T08:02:56;99675.31;;;20.79;54.98
12963;BME280;6546;49.882;8.666;2023-07-31T08:05:23;99683.59;;;21.05;54.47
12963;BME280;6546;49.882;8.666;2023-07-31T08:07:50;99681.22;;;21.20;54.48
12963;BME280;6546;49.882;8.666;2023-07-31T08:10:16;99679.00;;;21.45;54.76
12963;BME280;6546;49.882;8.666;2023-07-31T08:12:43;99668.72;;;21.65;52.17
12963;BME280;6546;49.882;8.666;2023-07-31T08:15:11;99676.19;;;21.73;53.27
12963;BME280;6546;49.882;8.666;2023-07-31T08:17:38;99676.69;;;21.70;52.70
12963;BME280;6546;49.882;8.666;2023-07-31T08:20:05;99678.94;;;21.62;53.58
12963;BME280;6546;49.882;8.666;2023-07-31T08:22:32;99667.00;;;21.54;53.83
12963;BME280;6546;49.882;8.666;2023-07-31T08:24:59;99669.16;;;21.40;53.72
12963;BME280;6546;49.882;8.666;2023-07-31T08:27:25;99655.94;;;21.35;54.61
12963;BME280;6546;49.882;8.666;2023-07-31T08:29:52;99654.66;;;21.38;53.66
12963;BME280;6546;49.882;8.666;2023-07-31T08:32:20;99646.75;;;21.38;54.33
12963;BME280;6546;49.882;8.666;2023-07-31T08:34:46;99653.88;;;21.59;55.55
12963;BME280;6546;49.882;8.666;2023-07-31T08:37:14;99643.09;;;21.82;53.39
12963;BME280;6546;49.882;8.666;2023-07-31T08:39:41;99636.84;;;21.88;53.35
12963;BME280;6546;49.882;8.666;2023-07-31T08:42:08;99633.13;;;22.06;51.96
12963;BME280;6546;49.882;8.666;2023-07-31T08:44:35;99635.44;;;22.24;52.23
12963;BME280;6546;49.882;8.666;2023-07-31T08:47:03;99631.16;;;22.45;51.89
12963;BME280;6546;49.882;8.666;2023-07-31T08:49:31;99628.84;;;22.54;51.85
12963;BME280;6546;49.882;8.666;2023-07-31T08:51:58;99624.09;;;22.56;51.23
12963;BME280;6546;49.882;8.666;2023-07-31T08:54:25;99635.81;;;22.65;50.55
12963;BME280;6546;49.882;8.666;2023-07-31T08:56:56;99633.34;;;22.80;49.59
12963;BME280;6546;49.882;8.666;2023-07-31T08:59:25;99629.44;;;22.87;49.87
12963;BME280;6546;49.882;8.666;2023-07-31T09:01:55;99633.28;;;22.75;49.42
12963;BME280;6546;49.882;8.666;2023-07-31T09:04:23;99631.78;;;22.57;50.01
12963;BME280;6546;49.882;8.666;2023-07-31T09:06:54;99634.34;;;22.47;50.23
12963;BME280;6546;49.882;8.666;2023-07-31T09:09:23;99640.66;;;22.46;50.62
12963;BME280;6546;49.882;8.666;2023-07-31T09:11:50;99631.09;;;22.40;51.54
12963;BME280;6546;49.882;8.666;2023-07-31T09:14:17;99624.91;;;22.56;52.24
12963;BME280;6546;49.882;8.666;2023-07-31T09:16:52;99618.00;;;22.77;50.96
12963;BME280;6546;49.882;8.666;2023-07-31T09:19:25;99626.81;;;22.92;49.87
12963;BME280;6546;49.882;8.666;2023-07-31T09:21:53;99627.84;;;22.86;50.01
12963;BME280;6546;49.882;8.666;2023-07-31T09:24:27;99620.34;;;22.73;50.28
12963;BME280;6546;49.882;8.666;2023-07-31T09:26:55;99617.69;;;22.46;49.80
12963;BME280;6546;49.882;8.666;2023-07-31T09:29:22;99614.44;;;22.34;50.48
12963;BME280;6546;49.882;8.666;2023-07-31T09:31:50;99614.72;;;22.38;50.15
12963;BME280;6546;49.882;8.666;2023-07-31T09:34:17;99611.91;;;22.49;50.94
12963;BME280;6546;49.882;8.666;2023-07-31T09:36:44;99605.53;;;22.72;51.24
12963;BME280;6546;49.882;8.666;2023-07-31T09:39:14;99598.31;;;22.94;51.07
12963;BME280;6546;49.882;8.666;2023-07-31T09:41:43;99604.53;;;23.15;49.28
12963;BME280;6546;49.882;8.666;2023-07-31T09:44:10;99597.94;;;23.18;48.76
12963;BME280;6546;49.882;8.666;2023-07-31T09:46:37;99608.28;;;23.24;48.12
12963;BME280;6546;49.882;8.666;2023-07-31T09:49:05;99610.63;;;23.16;47.00
12963;BME280;6546;49.882;8.666;2023-07-31T09:51:32;99598.88;;;23.01;47.17
12963;BME280;6546;49.882;8.666;2023-07-31T09:54:04;99602.75;;;22.84;47.95
12963;BME280;6546;49.882;8.666;2023-07-31T09:56:32;99591.09;;;22.80;49.20
12963;BME280;6546;49.882;8.666;2023-07-31T09:58:59;99589.97;;;22.71;47.79
12963;BME280;6546;49.882;8.666;2023-07-31T10:01:27;99594.16;;;22.67;48.26
12963;BME280;6546;49.882;8.666;2023-07-31T10:03:53;99584.41;;;22.67;48.73
12963;BME280;6546;49.882;8.666;2023-07-31T10:06:20;99577.00;;;22.69;49.50
12963;BME280;6546;49.882;8.666;2023-07-31T10:08:51;99576.06;;;22.80;48.10
12963;BME280;6546;49.882;8.666;2023-07-31T10:11:19;99567.13;;;22.86;48.19
12963;BME280;6546;49.882;8.666;2023-07-31T10:13:48;99570.03;;;22.90;48.00
12963;BME280;6546;49.882;8.666;2023-07-31T10:16:15;99551.88;;;22.98;48.01
12963;BME280;6546;49.882;8.666;2023-07-31T10:18:43;99557.78;;;23.21;48.41
12963;BME280;6546;49.882;8.666;2023-07-31T10:21:10;99553.06;;;23.23;47.81
12963;BME280;6546;49.882;8.666;2023-07-31T10:23:37;99549.06;;;23.20;47.66
12963;BME280;6546;49.882;8.666;2023-07-31T10:26:07;99553.00;;;23.13;47.60
12963;BME280;6546;49.882;8.666;2023-07-31T10:28:34;99546.06;;;23.01;47.34
12963;BME280;6546;49.882;8.666;2023-07-31T10:31:04;99546.00;;;22.86;48.28
12963;BME280;6546;49.882;8.666;2023-07-31T10:33:32;99544.38;;;22.80;47.71
12963;BME280;6546;49.882;8.666;2023-07-31T10:36:17;99543.25;;;22.71;48.12
12963;BME280;6546;49.882;8.666;2023-07-31T10:38:43;99554.63;;;22.77;49.39
12963;BME280;6546;49.882;8.666;2023-07-31T10:41:10;99552.59;;;22.89;50.02
12963;BME280;6546;49.882;8.666;2023-07-31T10:43:37;99553.69;;;22.93;49.17
12963;BME280;6546;49.882;8.666;2023-07-31T10:46:09;99553.41;;;22.89;49.56
12963;BME280;6546;49.882;8.666;2023-07-31T10:48:38;99549.44;;;22.87;47.29
12963;BME280;6546;49.882;8.666;2023-07-31T10:51:07;99542.09;;;22.94;46.54
12963;BME280;6546;49.882;8.666;2023-07-31T10:53:35;99542.97;;;23.10;46.94
12963;BME280;6546;49.882;8.666;2023-07-31T10:56:03;99546.66;;;23.09;47.17
12963;BME280;6546;49.882;8.666;2023-07-31T10:58:31;99548.31;;;23.20;46.36
12963;BME280;6546;49.882;8.666;2023-07-31T11:00:59;99541.47;;;23.29;46.80
12963;BME280;6546;49.882;8.666;2023-07-31T11:03:40;99533.56;;;23.34;46.11
12963;BME280;6546;49.882;8.666;2023-07-31T11:06:07;99530.38;;;23.32;46.30
12963;BME280;6546;49.882;8.666;2023-07-31T11:08:38;99520.38;;;23.39;47.32
12963;BME280;6546;49.882;8.666;2023-07-31T11:11:08;99530.94;;;23.39;45.41
12963;BME280;6546;49.882;8.666;2023-07-31T11:13:41;99540.63;;;23.18;45.67
12963;BME280;6546;49.882;8.666;2023-07-31T11:16:08;99530.22;;;22.96;46.42
12963;BME280;6546;49.882;8.666;2023-07-31T11:18:38;99537.81;;;22.88;46.80
12963;BME280;6546;49.882;8.666;2023-07-31T11:21:05;99543.88;;;22.83;46.91
12963;BME280;6546;49.882;8.666;2023-07-31T11:23:32;99533.75;;;22.75;47.46
12963;BME280;6546;49.882;8.666;2023-07-31T11:25:59;99533.13;;;22.63;47.59
12963;BME280;6546;49.882;8.666;2023-07-31T11:28:31;99533.09;;;22.58;48.11
12963;BME280;6546;49.882;8.666;2023-07-31T11:30:58;99532.03;;;22.59;48.25
12963;BME280;6546;49.882;8.666;2023-07-31T11:33:25;99518.34;;;22.62;48.98
12963;BME280;6546;49.882;8.666;2023-07-31T11:35:53;99532.16;;;22.69;48.14
12963;BME280;6546;49.882;8.666;2023-07-31T11:38:23;99526.66;;;22.76;48.27
12963;BME280;6546;49.882;8.666;2023-07-31T11:40:50;99526.41;;;22.82;48.03
12963;BME280;6546;49.882;8.666;2023-07-31T11:43:18;99523.53;;;22.84;47.97
12963;BME280;6546;49.882;8.666;2023-07-31T11:45:46;99526.47;;;22.87;47.96
12963;BME280;6546;49.882;8.666;2023-07-31T11:48:19;99517.97;;;22.80;48.35
12963;BME280;6546;49.882;8.666;2023-07-31T11:50:46;99519.53;;;22.76;49.21
12963;BME280;6546;49.882;8.666;2023-07-31T11:53:17;99514.50;;;22.75;48.50
12963;BME280;6546;49.882;8.666;2023-07-31T11:55:45;99510.00;;;22.70;49.80
12963;BME280;6546;49.882;8.666;2023-07-31T11:58:13;99511.81;;;22.70;48.86
12963;BME280;6546;49.882;8.666;2023-07-31T12:00:41;99498.59;;;22.65;48.91
12963;BME280;6546;49.882;8.666;2023-07-31T12:03:08;99501.97;;;22.60;49.53
12963;BME280;6546;49.882;8.666;2023-07-31T12:05:36;99505.13;;;22.62;49.44
12963;BME280;6546;49.882;8.666;2023-07-31T12:08:08;99497.78;;;22.64;49.94
12963;BME280;6546;49.882;8.666;2023-07-31T12:10:37;99505.47;;;22.66;49.69
12963;BME280;6546;49.882;8.666;2023-07-31T12:13:08;99489.97;;;22.74;50.14
12963;BME280;6546;49.882;8.666;2023-07-31T12:15:40;99502.47;;;22.94;50.23
12963;BME280;6546;49.882;8.666;2023-07-31T12:18:09;99489.06;;;23.06;48.74
12963;BME280;6546;49.882;8.666;2023-07-31T12:20:40;99481.72;;;23.18;49.02
12963;BME280;6546;49.882;8.666;2023-07-31T12:23:07;99482.03;;;23.31;49.76
12963;BME280;6546;49.882;8.666;2023-07-31T12:25:34;99471.19;;;23.28;48.68
12963;BME280;6546;49.882;8.666;2023-07-31T12:28:06;99478.25;;;23.17;49.26
12963;BME280;6546;49.882;8.666;2023-07-31T12:30:37;99469.81;;;23.10;49.40
12963;BME280;6546;49.882;8.666;2023-07-31T12:33:05;99476.88;;;22.99;49.37
12963;BME280;6546;49.882;8.666;2023-07-31T12:35:36;99476.78;;;22.84;50.08
12963;BME280;6546;49.882;8.666;2023-07-31T12:38:03;99475.97;;;22.74;49.46
12963;BME280;6546;49.882;8.666;2023-07-31T12:40:29;99473.19;;;22.59;51.03
12963;BME280;6546;49.882;8.666;2023-07-31T12:42:56;99473.69;;;22.56;50.64
12963;BME280;6546;49.882;8.666;2023-07-31T12:45:24;99466.56;;;22.51;51.37
12963;BME280;6546;49.882;8.666;2023-07-31T12:47:55;99463.41;;;22.59;51.96
12963;BME280;6546;49.882;8.666;2023-07-31T12:50:22;99463.41;;;22.59;50.78
12963;BME280;6546;49.882;8.666;2023-07-31T12:52:49;99452.28;;;22.52;50.87
12963;BME280;6546;49.882;8.666;2023-07-31T12:55:16;99454.16;;;22.52;50.17
12963;BME280;6546;49.882;8.666;2023-07-31T12:57:43;99448.03;;;22.46;49.42
12963;BME280;6546;49.882;8.666;2023-07-31T13:00:11;99448.00;;;22.41;49.68
12963;BME280;6546;49.882;8.666;2023-07-31T13:02:40;99442.75;;;22.41;49.86
12963;BME280;6546;49.882;8.666;2023-07-31T13:05:07;99442.44;;;22.37;50.26
12963;BME280;6546;49.882;8.666;2023-07-31T13:07:34;99441.13;;;22.40;50.10
12963;BME280;6546;49.882;8.666;2023-07-31T13:10:00;99440.59;;;22.38;50.17
12963;BME280;6546;49.882;8.666;2023-07-31T13:12:27;99432.19;;;22.41;49.98